Airfield :
LOGIN :

Register | Disclaimer

   EN    FR    IT 

 










Legend :    VFR   Marginal VFR   IFR   Intensive IFR   Very Intensive IFR
Visi :
Ceiling :
>= 8 km
>= 3000ft
5 to 8 km
1000 to 3000 ft
1500m to 5 km
500 to 1000 ft
800 to 1500m
200 to 500 ft
< 800m
< 200 ft
Symbols :   Thunderstorms  Fog  Heavy snow  Heavy precipitations  Wind > 20 kt
SIGMETs :     Misc.  Thunderstorms  Icing  Turbulence  Mountain Waves  Volcanic Ashes






- Airport Elevation : 863 ft
- IATA code : ZAZ


LEZG - Zaragoza Aragon

CURRENT METAR :
  • 162100Z 25008KT 9999 FEW055 07/03 Q1013

EXPIRED METARs :
  • 162030Z 26007G17KT 230V290 9999 FEW055 SCT070 07/04 Q1013
  • 162000Z 31005KT 9999 FEW055 BKN070 06/05 Q1013
  • 161930Z 30006KT 9999 FEW055 BKN075 06/03 Q1013
  • 161900Z 28007KT 9999 BKN070 06/03 Q1013
  • 161830Z 26008KT 9999 SCT075 07/02 Q1013
  • 161800Z 27007KT 9999 SCT070 06/03 Q1013

TAF TAF LEZG
Valid from the 16 at 18:00 until the 17 at 18:00 UTC


161700Z 1618/1718 27010KT 9999 FEW040 TX12/1713Z TN04/1706Z
TEMPO 1712/1717 25015G25KT



MET'MAP, your aeronautical weather chart ! - Copyright ORBIFLY December 2007 - Disclaimer

ORBIFLY MET'MAP TEAM :

Programming & Development : Alexandra Zaïnal
Concept & Development : Baudouin d'Aumeries
Co-Development & Prog : Marc-Olivier Méhu
Technical & hardware support : Manuel Goepfert

Contact : metmap@orbifly.com




SOURCES & CREDITS :

   NOAA